sensor_id;sensor_type;location;lat;lon;timestamp;pressure;altitude;pressure_sealevel;temperature;humidity
43741;BME280;29352;48.708;9.290;2023-05-25T00:01:29;98215.97;;;3.16;62.15
43741;BME280;29352;48.708;9.290;2023-05-25T00:03:55;98218.34;;;3.44;61.78
43741;BME280;29352;48.708;9.290;2023-05-25T00:06:21;98227.78;;;3.63;60.82
43741;BME280;29352;48.708;9.290;2023-05-25T00:08:46;98212.94;;;3.78;60.61
43741;BME280;29352;48.708;9.290;2023-05-25T00:11:13;98217.69;;;3.50;61.30
43741;BME280;29352;48.708;9.290;2023-05-25T00:13:41;98222.66;;;3.77;60.73
43741;BME280;29352;48.708;9.290;2023-05-25T00:16:06;98221.47;;;3.39;61.15
43741;BME280;29352;48.708;9.290;2023-05-25T00:18:31;98220.69;;;3.88;60.94
43741;BME280;29352;48.708;9.290;2023-05-25T00:20:57;98211.47;;;3.84;60.56
43741;BME280;29352;48.708;9.290;2023-05-25T00:23:29;98208.97;;;3.57;61.13
43741;BME280;29352;48.708;9.290;2023-05-25T00:25:55;98219.88;;;3.71;61.32
43741;BME280;29352;48.708;9.290;2023-05-25T00:28:21;98212.78;;;3.63;61.42
43741;BME280;29352;48.708;9.290;2023-05-25T00:30:47;98218.69;;;3.57;61.70
43741;BME280;29352;48.708;9.290;2023-05-25T00:33:13;98217.22;;;3.46;61.84
43741;BME280;29352;48.708;9.290;2023-05-25T00:35:41;98216.22;;;4.13;60.89
43741;BME280;29352;48.708;9.290;2023-05-25T00:38:14;98215.75;;;3.93;60.54
43741;BME280;29352;48.708;9.290;2023-05-25T00:40:41;98214.06;;;4.16;60.26
43741;BME280;29352;48.708;9.290;2023-05-25T00:43:07;98219.69;;;3.89;61.00
43741;BME280;29352;48.708;9.290;2023-05-25T00:45:33;98221.50;;;3.64;61.93
43741;BME280;29352;48.708;9.290;2023-05-25T00:47:59;98216.72;;;3.92;61.08
43741;BME280;29352;48.708;9.290;2023-05-25T00:50:40;98213.44;;;3.65;61.60
43741;BME280;29352;48.708;9.290;2023-05-25T00:53:08;98210.78;;;3.57;61.69
43741;BME280;29352;48.708;9.290;2023-05-25T00:55:44;98205.69;;;3.72;60.95
43741;BME280;29352;48.708;9.290;2023-05-25T00:58:16;98202.22;;;3.55;61.51
43741;BME280;29352;48.708;9.290;2023-05-25T01:00:48;98205.03;;;3.62;61.54
43741;BME280;29352;48.708;9.290;2023-05-25T01:03:18;98194.94;;;3.57;61.69
43741;BME280;29352;48.708;9.290;2023-05-25T01:05:47;98198.91;;;3.77;61.60
43741;BME280;29352;48.708;9.290;2023-05-25T01:08:15;98197.25;;;3.27;62.15
43741;BME280;29352;48.708;9.290;2023-05-25T01:10:47;98197.44;;;3.99;60.84
43741;BME280;29352;48.708;9.290;2023-05-25T01:13:17;98195.63;;;3.59;62.00
43741;BME280;29352;48.708;9.290;2023-05-25T01:15:45;98203.22;;;3.62;61.88
43741;BME280;29352;48.708;9.290;2023-05-25T01:18:15;98203.19;;;3.38;63.22
43741;BME280;29352;48.708;9.290;2023-05-25T01:20:55;98201.53;;;3.61;62.31
43741;BME280;29352;48.708;9.290;2023-05-25T01:23:41;98191.31;;;3.34;62.76
43741;BME280;29352;48.708;9.290;2023-05-25T01:26:15;98195.25;;;3.29;62.88
43741;BME280;29352;48.708;9.290;2023-05-25T01:28:48;98193.16;;;2.99;63.71
43741;BME280;29352;48.708;9.290;2023-05-25T01:31:19;98195.09;;;3.31;63.70
43741;BME280;29352;48.708;9.290;2023-05-25T01:33:49;98191.88;;;3.11;63.52
43741;BME280;29352;48.708;9.290;2023-05-25T01:36:17;98197.97;;;3.12;63.81
43741;BME280;29352;48.708;9.290;2023-05-25T01:38:43;98188.31;;;2.78;65.44
43741;BME280;29352;48.708;9.290;2023-05-25T01:41:09;98197.81;;;3.05;63.92
43741;BME280;29352;48.708;9.290;2023-05-25T01:43:34;98194.72;;;3.18;63.93
43741;BME280;29352;48.708;9.290;2023-05-25T01:46:08;98187.97;;;2.65;65.12
43741;BME280;29352;48.708;9.290;2023-05-25T01:48:53;98190.38;;;2.92;64.50
43741;BME280;29352;48.708;9.290;2023-05-25T01:54:40;98196.09;;;2.45;66.00
43741;BME280;29352;48.708;9.290;2023-05-25T01:57:18;98195.28;;;2.87;65.11
43741;BME280;29352;48.708;9.290;2023-05-25T01:59:46;98204.13;;;2.78;65.31
43741;BME280;29352;48.708;9.290;2023-05-25T02:02:16;98193.75;;;2.76;65.22
43741;BME280;29352;48.708;9.290;2023-05-25T02:04:43;98195.34;;;2.61;65.44
43741;BME280;29352;48.708;9.290;2023-05-25T02:07:08;98196.72;;;2.81;65.35
43741;BME280;29352;48.708;9.290;2023-05-25T02:09:35;98189.63;;;2.40;66.26
43741;BME280;29352;48.708;9.290;2023-05-25T02:12:00;98193.16;;;2.22;66.90
43741;BME280;29352;48.708;9.290;2023-05-25T02:14:26;98187.00;;;2.40;66.58
43741;BME280;29352;48.708;9.290;2023-05-25T02:16:52;98188.09;;;2.55;66.45
43741;BME280;29352;48.708;9.290;2023-05-25T02:19:17;98184.31;;;2.57;65.95
43741;BME280;29352;48.708;9.290;2023-05-25T02:21:43;98181.59;;;2.83;65.54
43741;BME280;29352;48.708;9.290;2023-05-25T02:24:09;98183.59;;;2.90;65.39
43741;BME280;29352;48.708;9.290;2023-05-25T02:26:36;98179.13;;;2.82;65.36
43741;BME280;29352;48.708;9.290;2023-05-25T02:29:05;98179.63;;;2.85;65.41
43741;BME280;29352;48.708;9.290;2023-05-25T02:31:31;98180.06;;;2.65;66.30
43741;BME280;29352;48.708;9.290;2023-05-25T02:33:57;98173.59;;;2.59;66.62
43741;BME280;29352;48.708;9.290;2023-05-25T02:36:23;98178.69;;;2.60;66.62
43741;BME280;29352;48.708;9.290;2023-05-25T02:38:48;98173.56;;;2.51;66.42
43741;BME280;29352;48.708;9.290;2023-05-25T02:41:17;98178.88;;;2.67;66.51
43741;BME280;29352;48.708;9.290;2023-05-25T02:43:46;98175.34;;;2.42;67.05
43741;BME280;29352;48.708;9.290;2023-05-25T02:46:12;98179.94;;;2.40;66.99
43741;BME280;29352;48.708;9.290;2023-05-25T02:48:38;98188.38;;;2.44;66.92
43741;BME280;29352;48.708;9.290;2023-05-25T02:51:03;98188.69;;;2.41;66.90
43741;BME280;29352;48.708;9.290;2023-05-25T02:53:29;98186.97;;;2.31;67.25
43741;BME280;29352;48.708;9.290;2023-05-25T02:55:55;98188.53;;;2.50;66.89
43741;BME280;29352;48.708;9.290;2023-05-25T02:58:20;98180.91;;;2.39;67.19
43741;BME280;29352;48.708;9.290;2023-05-25T03:00:47;98187.84;;;2.40;67.29
43741;BME280;29352;48.708;9.290;2023-05-25T03:03:13;98188.97;;;2.11;68.30
43741;BME280;29352;48.708;9.290;2023-05-25T03:05:38;98184.50;;;2.30;67.84
43741;BME280;29352;48.708;9.290;2023-05-25T03:08:04;98198.97;;;2.00;70.01
43741;BME280;29352;48.708;9.290;2023-05-25T03:10:30;98198.75;;;2.19;70.07
43741;BME280;29352;48.708;9.290;2023-05-25T03:12:55;98193.94;;;2.14;69.25
43741;BME280;29352;48.708;9.290;2023-05-25T03:15:20;98190.78;;;2.11;68.90
43741;BME280;29352;48.708;9.290;2023-05-25T03:17:47;98193.63;;;2.18;68.49
43741;BME280;29352;48.708;9.290;2023-05-25T03:20:13;98193.44;;;2.11;68.75
43741;BME280;29352;48.708;9.290;2023-05-25T03:22:41;98199.31;;;2.05;69.47
43741;BME280;29352;48.708;9.290;2023-05-25T03:25:08;98184.81;;;2.01;69.49
43741;BME280;29352;48.708;9.290;2023-05-25T03:27:36;98189.88;;;2.20;69.00
43741;BME280;29352;48.708;9.290;2023-05-25T03:30:02;98190.66;;;2.12;69.35
43741;BME280;29352;48.708;9.290;2023-05-25T03:32:28;98194.13;;;2.13;69.24
43741;BME280;29352;48.708;9.290;2023-05-25T03:34:53;98191.28;;;2.06;69.63
43741;BME280;29352;48.708;9.290;2023-05-25T03:37:19;98182.72;;;2.38;68.85
43741;BME280;29352;48.708;9.290;2023-05-25T03:39:44;98185.56;;;2.45;68.58
43741;BME280;29352;48.708;9.290;2023-05-25T03:42:10;98173.69;;;2.41;69.54
43741;BME280;29352;48.708;9.290;2023-05-25T03:44:35;98185.56;;;2.19;70.53
43741;BME280;29352;48.708;9.290;2023-05-25T03:47:00;98184.13;;;2.51;69.68
43741;BME280;29352;48.708;9.290;2023-05-25T03:49:26;98182.72;;;2.38;70.06
43741;BME280;29352;48.708;9.290;2023-05-25T03:51:52;98190.75;;;2.63;69.86
43741;BME280;29352;48.708;9.290;2023-05-25T03:54:17;98201.69;;;2.50;70.48
43741;BME280;29352;48.708;9.290;2023-05-25T03:56:42;98197.44;;;2.92;69.00
43741;BME280;29352;48.708;9.290;2023-05-25T03:59:08;98198.22;;;2.76;70.27
43741;BME280;29352;48.708;9.290;2023-05-25T04:01:33;98206.91;;;3.11;69.32
43741;BME280;29352;48.708;9.290;2023-05-25T04:04:02;98204.66;;;3.32;68.04
43741;BME280;29352;48.708;9.290;2023-05-25T04:06:27;98211.56;;;3.25;68.40
43741;BME280;29352;48.708;9.290;2023-05-25T04:08:54;98207.81;;;3.60;67.98
43741;BME280;29352;48.708;9.290;2023-05-25T04:11:19;98202.69;;;4.08;66.85
43741;BME280;29352;48.708;9.290;2023-05-25T04:13:46;98206.00;;;3.93;66.35
43741;BME280;29352;48.708;9.290;2023-05-25T04:16:12;98203.50;;;4.16;65.99
43741;BME280;29352;48.708;9.290;2023-05-25T04:18:38;98197.00;;;4.43;65.07
43741;BME280;29352;48.708;9.290;2023-05-25T04:21:04;98204.44;;;4.40;64.91
43741;BME280;29352;48.708;9.290;2023-05-25T04:23:29;98211.13;;;4.75;64.49
43741;BME280;29352;48.708;9.290;2023-05-25T04:25:55;98210.50;;;5.04;63.71
43741;BME280;29352;48.708;9.290;2023-05-25T04:28:21;98217.28;;;5.07;63.85
43741;BME280;29352;48.708;9.290;2023-05-25T04:30:47;98210.09;;;5.46;63.16
43741;BME280;29352;48.708;9.290;2023-05-25T04:33:12;98212.44;;;5.64;62.91
43741;BME280;29352;48.708;9.290;2023-05-25T04:35:38;98206.25;;;5.95;62.06
43741;BME280;29352;48.708;9.290;2023-05-25T04:38:05;98205.19;;;5.58;63.20
43741;BME280;29352;48.708;9.290;2023-05-25T04:40:31;98207.59;;;6.29;60.47
43741;BME280;29352;48.708;9.290;2023-05-25T04:43:00;98197.75;;;6.67;60.15
43741;BME280;29352;48.708;9.290;2023-05-25T04:45:26;98204.59;;;6.61;60.84
43741;BME280;29352;48.708;9.290;2023-05-25T04:47:53;98202.75;;;6.47;60.19
43741;BME280;29352;48.708;9.290;2023-05-25T04:50:21;98204.97;;;6.73;60.00
43741;BME280;29352;48.708;9.290;2023-05-25T04:52:47;98208.59;;;7.38;58.94
43741;BME280;29352;48.708;9.290;2023-05-25T04:55:12;98217.69;;;6.78;59.62
43741;BME280;29352;48.708;9.290;2023-05-25T04:57:38;98215.56;;;7.39;59.10
43741;BME280;29352;48.708;9.290;2023-05-25T05:00:04;98219.44;;;7.58;58.12
43741;BME280;29352;48.708;9.290;2023-05-25T05:02:31;98222.69;;;7.02;59.39
43741;BME280;29352;48.708;9.290;2023-05-25T05:04:57;98217.94;;;7.34;59.58
43741;BME280;29352;48.708;9.290;2023-05-25T05:07:22;98215.16;;;7.21;59.36
43741;BME280;29352;48.708;9.290;2023-05-25T05:09:48;98210.63;;;8.57;57.58
43741;BME280;29352;48.708;9.290;2023-05-25T05:12:14;98211.75;;;8.13;57.68
43741;BME280;29352;48.708;9.290;2023-05-25T05:14:39;98219.06;;;9.08;55.77
43741;BME280;29352;48.708;9.290;2023-05-25T05:17:05;98212.13;;;9.14;55.74
43741;BME280;29352;48.708;9.290;2023-05-25T05:19:30;98220.81;;;8.81;56.02
43741;BME280;29352;48.708;9.290;2023-05-25T05:21:57;98228.25;;;9.60;54.57
43741;BME280;29352;48.708;9.290;2023-05-25T05:24:23;98231.03;;;9.19;55.04
43741;BME280;29352;48.708;9.290;2023-05-25T05:26:48;98227.03;;;9.01;55.67
43741;BME280;29352;48.708;9.290;2023-05-25T05:29:14;98219.91;;;9.77;54.68
43741;BME280;29352;48.708;9.290;2023-05-25T05:31:42;98228.94;;;9.76;54.87
43741;BME280;29352;48.708;9.290;2023-05-25T05:34:07;98233.44;;;10.02;54.38
43741;BME280;29352;48.708;9.290;2023-05-25T05:36:33;98237.97;;;9.81;54.96
43741;BME280;29352;48.708;9.290;2023-05-25T05:38:59;98247.00;;;10.00;55.04
43741;BME280;29352;48.708;9.290;2023-05-25T05:41:25;98245.53;;;10.57;54.12
43741;BME280;29352;48.708;9.290;2023-05-25T05:43:51;98250.47;;;10.34;54.47
43741;BME280;29352;48.708;9.290;2023-05-25T05:46:16;98242.84;;;10.71;53.87
43741;BME280;29352;48.708;9.290;2023-05-25T05:48:42;98239.78;;;10.60;54.11
43741;BME280;29352;48.708;9.290;2023-05-25T05:51:07;98253.13;;;10.67;54.04
43741;BME280;29352;48.708;9.290;2023-05-25T05:53:33;98248.41;;;11.27;52.25
43741;BME280;29352;48.708;9.290;2023-05-25T05:56:00;98255.72;;;12.15;51.86
43741;BME280;29352;48.708;9.290;2023-05-25T05:58:26;98261.63;;;11.92;52.24
43741;BME280;29352;48.708;9.290;2023-05-25T06:00:53;98264.69;;;12.89;50.17
43741;BME280;29352;48.708;9.290;2023-05-25T06:03:20;98263.56;;;13.04;49.67
43741;BME280;29352;48.708;9.290;2023-05-25T06:05:46;98256.56;;;13.21;51.06
43741;BME280;29352;48.708;9.290;2023-05-25T06:08:12;98258.72;;;13.91;48.78
43741;BME280;29352;48.708;9.290;2023-05-25T06:10:38;98268.69;;;13.05;49.91
43741;BME280;29352;48.708;9.290;2023-05-25T06:13:04;98264.94;;;13.43;49.98
43741;BME280;29352;48.708;9.290;2023-05-25T06:15:31;98261.06;;;13.20;50.09
43741;BME280;29352;48.708;9.290;2023-05-25T06:17:57;98265.28;;;13.46;50.00
43741;BME280;29352;48.708;9.290;2023-05-25T06:20:23;98264.13;;;12.69;51.01
43741;BME280;29352;48.708;9.290;2023-05-25T06:22:48;98256.41;;;13.16;50.69
43741;BME280;29352;48.708;9.290;2023-05-25T06:25:14;98248.25;;;14.01;49.65
43741;BME280;29352;48.708;9.290;2023-05-25T06:27:40;98255.78;;;13.81;49.72
43741;BME280;29352;48.708;9.290;2023-05-25T06:30:06;98256.25;;;13.59;50.40
43741;BME280;29352;48.708;9.290;2023-05-25T06:32:33;98263.69;;;13.76;50.65
43741;BME280;29352;48.708;9.290;2023-05-25T06:34:59;98259.94;;;15.12;47.87
43741;BME280;29352;48.708;9.290;2023-05-25T06:37:25;98263.38;;;13.84;50.01
43741;BME280;29352;48.708;9.290;2023-05-25T06:39:51;98278.50;;;13.30;50.04
43741;BME280;29352;48.708;9.290;2023-05-25T06:42:16;98273.66;;;12.83;50.97
43741;BME280;29352;48.708;9.290;2023-05-25T06:44:42;98274.03;;;13.23;50.37
43741;BME280;29352;48.708;9.290;2023-05-25T06:47:07;98273.22;;;11.48;53.45
43741;BME280;29352;48.708;9.290;2023-05-25T06:49:33;98279.41;;;10.63;54.23
43741;BME280;29352;48.708;9.290;2023-05-25T06:51:58;98287.59;;;10.42;55.59
43741;BME280;29352;48.708;9.290;2023-05-25T06:54:23;98285.50;;;9.71;57.97
43741;BME280;29352;48.708;9.290;2023-05-25T06:56:50;98297.75;;;9.11;58.07
43741;BME280;29352;48.708;9.290;2023-05-25T06:59:15;98287.09;;;8.76;59.41
43741;BME280;29352;48.708;9.290;2023-05-25T07:01:42;98291.47;;;8.62;61.31
43741;BME280;29352;48.708;9.290;2023-05-25T07:04:09;98297.81;;;8.33;61.91
43741;BME280;29352;48.708;9.290;2023-05-25T07:06:35;98300.88;;;8.58;60.21
43741;BME280;29352;48.708;9.290;2023-05-25T07:09:01;98308.16;;;8.43;60.80
43741;BME280;29352;48.708;9.290;2023-05-25T07:11:26;98315.38;;;8.27;62.63
43741;BME280;29352;48.708;9.290;2023-05-25T07:13:52;98310.22;;;8.47;61.50
43741;BME280;29352;48.708;9.290;2023-05-25T07:16:17;98309.59;;;8.24;62.42
43741;BME280;29352;48.708;9.290;2023-05-25T07:18:42;98314.88;;;7.96;61.93
43741;BME280;29352;48.708;9.290;2023-05-25T07:21:08;98310.31;;;8.33;60.77
43741;BME280;29352;48.708;9.290;2023-05-25T07:23:34;98316.84;;;8.09;61.26
43741;BME280;29352;48.708;9.290;2023-05-25T07:26:01;98323.34;;;8.27;60.69
43741;BME280;29352;48.708;9.290;2023-05-25T07:28:26;98317.44;;;8.32;60.91
43741;BME280;29352;48.708;9.290;2023-05-25T07:30:52;98320.53;;;8.57;59.76
43741;BME280;29352;48.708;9.290;2023-05-25T07:33:17;98324.13;;;8.49;60.38
43741;BME280;29352;48.708;9.290;2023-05-25T07:35:43;98324.19;;;8.84;59.93
43741;BME280;29352;48.708;9.290;2023-05-25T07:38:08;98320.31;;;8.59;61.83
43741;BME280;29352;48.708;9.290;2023-05-25T07:40:33;98320.28;;;8.80;60.80
43741;BME280;29352;48.708;9.290;2023-05-25T07:43:00;98328.56;;;9.27;59.64
43741;BME280;29352;48.708;9.290;2023-05-25T07:45:25;98321.50;;;9.60;59.38
43741;BME280;29352;48.708;9.290;2023-05-25T07:47:50;98329.25;;;10.03;57.17
43741;BME280;29352;48.708;9.290;2023-05-25T07:50:16;98322.09;;;10.90;56.54
43741;BME280;29352;48.708;9.290;2023-05-25T07:52:42;98326.31;;;11.38;56.33
43741;BME280;29352;48.708;9.290;2023-05-25T07:55:08;98325.56;;;11.69;55.77
43741;BME280;29352;48.708;9.290;2023-05-25T07:57:34;98327.50;;;11.48;55.61
43741;BME280;29352;48.708;9.290;2023-05-25T07:59:59;98318.53;;;12.63;54.22
43741;BME280;29352;48.708;9.290;2023-05-25T08:02:25;98314.47;;;12.78;52.76
43741;BME280;29352;48.708;9.290;2023-05-25T08:04:51;98313.25;;;12.56;54.20
43741;BME280;29352;48.708;9.290;2023-05-25T08:07:20;98312.69;;;12.72;53.41
43741;BME280;29352;48.708;9.290;2023-05-25T08:09:45;98306.06;;;12.75;52.79
43741;BME280;29352;48.708;9.290;2023-05-25T08:12:11;98288.50;;;14.01;52.27
43741;BME280;29352;48.708;9.290;2023-05-25T08:14:37;98296.13;;;14.28;50.55
43741;BME280;29352;48.708;9.290;2023-05-25T08:17:02;98294.25;;;15.34;51.41
43741;BME280;29352;48.708;9.290;2023-05-25T08:19:29;98297.59;;;15.53;49.44
43741;BME280;29352;48.708;9.290;2023-05-25T08:21:58;98304.66;;;15.71;49.84
43741;BME280;29352;48.708;9.290;2023-05-25T08:24:23;98307.38;;;14.95;50.84
43741;BME280;29352;48.708;9.290;2023-05-25T08:26:49;98296.63;;;15.19;49.04
43741;BME280;29352;48.708;9.290;2023-05-25T08:29:15;98303.06;;;15.58;48.72
43741;BME280;29352;48.708;9.290;2023-05-25T08:31:41;98306.38;;;15.48;48.49
43741;BME280;29352;48.708;9.290;2023-05-25T08:34:08;98308.06;;;15.26;49.35
43741;BME280;29352;48.708;9.290;2023-05-25T08:36:34;98309.72;;;15.55;49.33
43741;BME280;29352;48.708;9.290;2023-05-25T08:39:01;98308.56;;;15.11;49.69
43741;BME280;29352;48.708;9.290;2023-05-25T08:41:28;98313.81;;;14.82;49.74
43741;BME280;29352;48.708;9.290;2023-05-25T08:43:54;98307.88;;;14.80;49.77
43741;BME280;29352;48.708;9.290;2023-05-25T08:46:29;98303.19;;;15.51;50.64
43741;BME280;29352;48.708;9.290;2023-05-25T08:48:58;98303.44;;;15.50;48.92
43741;BME280;29352;48.708;9.290;2023-05-25T08:51:34;98313.09;;;14.52;50.40
43741;BME280;29352;48.708;9.290;2023-05-25T08:54:09;98309.31;;;14.29;50.70
43741;BME280;29352;48.708;9.290;2023-05-25T08:57:22;98306.50;;;14.24;51.42
43741;BME280;29352;48.708;9.290;2023-05-25T09:00:07;98308.31;;;15.65;50.67
43741;BME280;29352;48.708;9.290;2023-05-25T09:02:37;98300.31;;;16.61;48.98
43741;BME280;29352;48.708;9.290;2023-05-25T09:05:09;98288.09;;;16.07;49.05
43741;BME280;29352;48.708;9.290;2023-05-25T09:07:35;98292.41;;;15.23;48.86
43741;BME280;29352;48.708;9.290;2023-05-25T09:10:01;98310.66;;;16.86;47.46
43741;BME280;29352;48.708;9.290;2023-05-25T09:12:29;98299.75;;;16.59;48.31
43741;BME280;29352;48.708;9.290;2023-05-25T09:14:57;98304.53;;;16.23;48.96
43741;BME280;29352;48.708;9.290;2023-05-25T09:17:23;98308.59;;;16.08;49.69
43741;BME280;29352;48.708;9.290;2023-05-25T09:19:49;98303.22;;;15.80;49.75
43741;BME280;29352;48.708;9.290;2023-05-25T09:22:15;98319.53;;;15.09;49.98
43741;BME280;29352;48.708;9.290;2023-05-25T09:24:41;98313.75;;;15.41;50.10
43741;BME280;29352;48.708;9.290;2023-05-25T09:27:15;98325.97;;;16.18;49.21
43741;BME280;29352;48.708;9.290;2023-05-25T09:29:46;98317.53;;;15.69;49.38
43741;BME280;29352;48.708;9.290;2023-05-25T09:32:13;98315.09;;;15.55;50.21
43741;BME280;29352;48.708;9.290;2023-05-25T09:34:39;98316.34;;;16.05;50.72
43741;BME280;29352;48.708;9.290;2023-05-25T09:37:12;98317.13;;;16.51;49.34
43741;BME280;29352;48.708;9.290;2023-05-25T09:39:42;98304.13;;;17.42;49.00
43741;BME280;29352;48.708;9.290;2023-05-25T09:42:09;98312.47;;;17.63;47.28
43741;BME280;29352;48.708;9.290;2023-05-25T09:44:35;98318.44;;;16.48;47.70
43741;BME280;29352;48.708;9.290;2023-05-25T09:47:03;98321.38;;;16.64;48.65
43741;BME280;29352;48.708;9.290;2023-05-25T09:49:29;98318.00;;;16.56;47.66
43741;BME280;29352;48.708;9.290;2023-05-25T09:51:55;98317.63;;;17.03;49.17
43741;BME280;29352;48.708;9.290;2023-05-25T09:54:21;98304.84;;;16.09;51.67
43741;BME280;29352;48.708;9.290;2023-05-25T09:56:47;98304.31;;;16.58;51.31
43741;BME280;29352;48.708;9.290;2023-05-25T09:59:13;98308.66;;;16.98;49.40
43741;BME280;29352;48.708;9.290;2023-05-25T10:01:40;98318.06;;;16.28;49.75
43741;BME280;29352;48.708;9.290;2023-05-25T10:04:05;98322.38;;;17.35;47.80
43741;BME280;29352;48.708;9.290;2023-05-25T10:06:32;98316.88;;;17.47;47.35
43741;BME280;29352;48.708;9.290;2023-05-25T10:08:59;98308.09;;;16.96;49.37
43741;BME280;29352;48.708;9.290;2023-05-25T10:11:26;98304.00;;;17.32;48.64
43741;BME280;29352;48.708;9.290;2023-05-25T10:13:54;98313.69;;;17.11;50.02
43741;BME280;29352;48.708;9.290;2023-05-25T10:16:25;98306.31;;;18.16;48.49
43741;BME280;29352;48.708;9.290;2023-05-25T10:19:13;98302.81;;;18.21;47.96
43741;BME280;29352;48.708;9.290;2023-05-25T10:21:51;98294.22;;;17.97;48.89
43741;BME280;29352;48.708;9.290;2023-05-25T10:24:31;98309.75;;;18.12;46.47
43741;BME280;29352;48.708;9.290;2023-05-25T10:27:02;98315.19;;;17.41;47.21
43741;BME280;29352;48.708;9.290;2023-05-25T10:29:34;98315.94;;;16.97;48.44
43741;BME280;29352;48.708;9.290;2023-05-25T10:32:02;98309.88;;;17.73;48.07
43741;BME280;29352;48.708;9.290;2023-05-25T10:34:29;98307.38;;;17.22;48.46
43741;BME280;29352;48.708;9.290;2023-05-25T10:36:55;98317.38;;;17.22;48.95
43741;BME280;29352;48.708;9.290;2023-05-25T10:39:22;98307.41;;;18.20;46.89
43741;BME280;29352;48.708;9.290;2023-05-25T10:41:49;98319.50;;;16.47;49.38
43741;BME280;29352;48.708;9.290;2023-05-25T10:44:16;98296.34;;;17.95;47.31
43741;BME280;29352;48.708;9.290;2023-05-25T10:46:43;98298.59;;;18.35;47.24
43741;BME280;29352;48.708;9.290;2023-05-25T10:49:09;98291.31;;;18.36;47.93
43741;BME280;29352;48.708;9.290;2023-05-25T10:51:39;98298.44;;;18.15;47.96
43741;BME280;29352;48.708;9.290;2023-05-25T10:54:06;98296.72;;;17.55;47.93
43741;BME280;29352;48.708;9.290;2023-05-25T10:56:32;98299.03;;;17.46;48.66
43741;BME280;29352;48.708;9.290;2023-05-25T10:58:58;98311.09;;;17.82;48.19
43741;BME280;29352;48.708;9.290;2023-05-25T11:01:24;98311.75;;;17.07;48.55
43741;BME280;29352;48.708;9.290;2023-05-25T11:04:13;98314.94;;;16.65;48.90
43741;BME280;29352;48.708;9.290;2023-05-25T11:09:24;98314.34;;;16.63;49.44
43741;BME280;29352;48.708;9.290;2023-05-25T11:19:48;98303.53;;;15.55;50.60
43741;BME280;29352;48.708;9.290;2023-05-25T11:22:17;98304.97;;;15.86;50.62
43741;BME280;29352;48.708;9.290;2023-05-25T11:24:48;98310.41;;;16.37;50.23
43741;BME280;29352;48.708;9.290;2023-05-25T11:27:21;98298.81;;;16.70;50.72
43741;BME280;29352;48.708;9.290;2023-05-25T11:29:57;98300.81;;;16.58;51.03
43741;BME280;29352;48.708;9.290;2023-05-25T11:32:25;98297.69;;;16.49;51.13
43741;BME280;29352;48.708;9.290;2023-05-25T11:34:52;98311.31;;;16.08;50.16
43741;BME280;29352;48.708;9.290;2023-05-25T11:37:19;98295.63;;;16.73;49.58
43741;BME280;29352;48.708;9.290;2023-05-25T11:39:49;98308.19;;;16.17;50.19
43741;BME280;29352;48.708;9.290;2023-05-25T11:42:18;98302.75;;;15.83;52.19
43741;BME280;29352;48.708;9.290;2023-05-25T11:44:45;98315.28;;;16.06;50.25
43741;BME280;29352;48.708;9.290;2023-05-25T11:47:12;98295.81;;;16.32;50.60
43741;BME280;29352;48.708;9.290;2023-05-25T11:49:40;98301.66;;;16.46;50.10
43741;BME280;29352;48.708;9.290;2023-05-25T11:52:13;98293.28;;;15.80;51.26
43741;BME280;29352;48.708;9.290;2023-05-25T11:54:39;98310.50;;;16.59;50.03
43741;BME280;29352;48.708;9.290;2023-05-25T11:59:50;98305.28;;;15.90;50.39
43741;BME280;29352;48.708;9.290;2023-05-25T12:02:17;98295.69;;;16.11;50.51
43741;BME280;29352;48.708;9.290;2023-05-25T12:04:57;98302.47;;;16.80;49.25
43741;BME280;29352;48.708;9.290;2023-05-25T12:07:25;98290.91;;;16.29;50.50
43741;BME280;29352;48.708;9.290;2023-05-25T12:10:13;98287.63;;;16.27;50.31
43741;BME280;29352;48.708;9.290;2023-05-25T12:12:48;98296.97;;;16.37;50.67
43741;BME280;29352;48.708;9.290;2023-05-25T12:15:19;98298.22;;;16.00;52.55
43741;BME280;29352;48.708;9.290;2023-05-25T12:17:47;98286.25;;;16.75;50.05
43741;BME280;29352;48.708;9.290;2023-05-25T12:20:15;98299.72;;;16.75;49.59
43741;BME280;29352;48.708;9.290;2023-05-25T12:22:43;98298.16;;;17.18;48.81
43741;BME280;29352;48.708;9.290;2023-05-25T12:25:11;98294.13;;;17.16;49.24
43741;BME280;29352;48.708;9.290;2023-05-25T12:27:39;98288.59;;;16.89;48.84
43741;BME280;29352;48.708;9.290;2023-05-25T12:30:07;98295.38;;;15.78;50.60
43741;BME280;29352;48.708;9.290;2023-05-25T12:32:34;98297.13;;;16.64;50.27
43741;BME280;29352;48.708;9.290;2023-05-25T12:35:26;98295.63;;;16.73;49.74
43741;BME280;29352;48.708;9.290;2023-05-25T12:38:12;98294.63;;;16.12;49.66
43741;BME280;29352;48.708;9.290;2023-05-25T12:40:40;98293.34;;;16.31;49.73
43741;BME280;29352;48.708;9.290;2023-05-25T12:43:06;98283.56;;;16.59;50.46
43741;BME280;29352;48.708;9.290;2023-05-25T12:45:32;98299.22;;;16.95;49.17
43741;BME280;29352;48.708;9.290;2023-05-25T12:47:57;98293.13;;;16.49;49.39
43741;BME280;29352;48.708;9.290;2023-05-25T12:50:23;98293.72;;;16.90;49.66
43741;BME280;29352;48.708;9.290;2023-05-25T12:52:48;98288.50;;;17.22;48.11
43741;BME280;29352;48.708;9.290;2023-05-25T13:02:57;98290.41;;;16.83;49.66
43741;BME280;29352;48.708;9.290;2023-05-25T13:05:25;98289.59;;;16.66;50.69
43741;BME280;29352;48.708;9.290;2023-05-25T13:07:53;98284.81;;;16.51;49.85
43741;BME280;29352;48.708;9.290;2023-05-25T13:10:21;98288.72;;;17.16;49.06
43741;BME280;29352;48.708;9.290;2023-05-25T13:12:49;98288.72;;;17.38;49.46
43741;BME280;29352;48.708;9.290;2023-05-25T13:15:18;98273.72;;;17.74;49.00
43741;BME280;29352;48.708;9.290;2023-05-25T13:17:49;98280.63;;;17.38;49.96
43741;BME280;29352;48.708;9.290;2023-05-25T13:20:17;98282.06;;;17.45;48.69
43741;BME280;29352;48.708;9.290;2023-05-25T13:22:45;98285.84;;;16.67;49.10
43741;BME280;29352;48.708;9.290;2023-05-25T13:25:12;98276.75;;;17.12;49.88
43741;BME280;29352;48.708;9.290;2023-05-25T13:27:50;98273.66;;;17.42;49.08
43741;BME280;29352;48.708;9.290;2023-05-25T13:30:17;98282.47;;;16.76;51.00
43741;BME280;29352;48.708;9.290;2023-05-25T13:32:44;98273.09;;;16.79;48.98